Dagning — JXLU — position and weather

sailwx.info

Track history (hours):
 
Tides and Currents Weather Stations Pressure Air Temp Water Temp Dewpoint Dewpoint Depression Visibility Wind Speed Wind Dir Waves Ship Positions

Dagning

Last reported at 2014-Apr-04 21:33 UTC. Time now 2014-Jul-24 02:06 UTC.
Position N 61°36' E 005°02'.
Warning: this ship's position is months out of date.

Length 18 m; draft 2 m.

Type: Passenger vessel. MMSI: 257216700.

Date/timePositionNaut miles runAvg speedWind from/ knotsBaromVisibWave heightAir tempDewpointWater temp
2014-Apr-04 21:33N 61°36' E 005°02'0 0.0
2014-Apr-04 20:33N 61°36' E 005°02'0 0.0
2014-Apr-04 19:33N 61°36' E 005°02'0 0.0
2014-Apr-04 18:33N 61°36' E 005°02'0 0.0
2014-Apr-04 17:33N 61°36' E 005°02'10 3.3
2014-Apr-04 14:33N 61°46' E 004°58'8 7.9
2014-Apr-04 13:33N 61°38' E 004°57'2 2.3
2014-Apr-04 12:33N 61°36' E 005°01'0 0.4
2014-Apr-04 11:33N 61°36' E 005°02'0 0.0
2014-Apr-04 10:33N 61°36' E 005°02'0 0.0
2014-Apr-04 09:33N 61°36' E 005°02'0 0.0
2014-Apr-04 08:33N 61°36' E 005°02'0 0.0
2014-Apr-04 07:33N 61°36' E 005°02'0 0.0
2014-Apr-04 06:33N 61°36' E 005°02'0 0.0
2014-Apr-04 05:33N 61°36' E 005°02'0 0.0
2014-Apr-04 04:33N 61°36' E 005°02'10 0.7
2014-Apr-03 14:33N 61°46' E 004°58'1010.1
2014-Apr-03 13:33N 61°36' E 004°56'3 2.9
2014-Apr-03 12:33N 61°36' E 005°01'0 0.1
2014-Apr-03 11:34N 61°36' E 005°02'0 0.0
2014-Apr-03 10:33N 61°36' E 005°02'0 0.0
2014-Apr-03 09:33N 61°36' E 005°02'0 0.0
2014-Apr-03 08:34N 61°36' E 005°02'0 0.0
2014-Apr-03 07:33N 61°36' E 005°02'0 0.0
2014-Apr-03 06:33N 61°36' E 005°02'6 5.6
2014-Apr-03 05:28N 61°30' E 004°59'6 6.4
2014-Apr-03 04:32N 61°36' E 005°02'10 0.7
2014-Apr-02 14:33N 61°46' E 004°58'10 9.8
2014-Apr-02 13:32N 61°36' E 004°59'1 1.4
2014-Apr-02 12:33N 61°36' E 005°01'0 0.2
2014-Apr-02 11:33N 61°36' E 005°02'0 0.0
2014-Apr-02 10:33N 61°36' E 005°02'0 0.0
2014-Apr-02 09:33N 61°36' E 005°02'1 1.5
2014-Apr-02 08:33N 61°37' E 004°59'1 1.5
2014-Apr-02 07:33N 61°36' E 005°02'0 0.0
2014-Apr-02 06:33N 61°36' E 005°02'5 5.4
2014-Apr-02 05:33N 61°40' E 004°53'5 5.3
2014-Apr-02 04:33N 61°36' E 005°02'10 0.7
2014-Apr-01 14:33N 61°46' E 004°57'1110.7
2014-Apr-01 13:33N 61°35' E 004°57'2 2.0
2014-Apr-01 12:33N 61°36' E 005°01'0 0.1
2014-Apr-01 11:33N 61°36' E 005°02'0 0.0
2014-Apr-01 10:33N 61°36' E 005°02'0 0.0
2014-Apr-01 09:33N 61°36' E 005°02'0 0.0
2014-Apr-01 08:33N 61°36' E 005°02'0 0.0
2014-Apr-01 07:33N 61°36' E 005°02'0 0.0
2014-Apr-01 06:30N 61°36' E 005°02'8 8.0
2014-Apr-01 05:33N 61°34' E 004°46'8 7.7
2014-Apr-01 04:33N 61°36' E 005°02'10 0.7
2014-Mar-31 14:33N 61°46' E 004°58'1110.7
2014-Mar-31 13:33N 61°35' E 004°57'2 2.4
2014-Mar-31 12:33N 61°36' E 005°01'0 0.2
2014-Mar-31 11:33N 61°36' E 005°02'0 0.0
2014-Mar-31 10:33N 61°36' E 005°02'0 0.0
2014-Mar-31 09:33N 61°36' E 005°02'0 0.0
2014-Mar-31 08:33N 61°36' E 005°02'0 0.0
2014-Mar-31 07:32N 61°36' E 005°02'0 0.0
2014-Mar-31 06:33N 61°36' E 005°02'8 7.6
2014-Mar-31 05:33N 61°34' E 004°46'8 7.8
2014-Mar-31 04:33N 61°36' E 005°02'9 4.2
2014-Mar-31 02:21N 61°45' E 005°00'911.4
2014-Mar-31 01:33N 61°36' E 005°02'0 0.0
2014-Mar-31 00:32N 61°36' E 005°02'0 0.0
2014-Mar-30 23:33N 61°36' E 005°02'0 0.0
2014-Mar-30 22:33N 61°36' E 005°02'0 0.0
2014-Mar-30 21:33N 61°36' E 005°02'0 0.0
2014-Mar-30 20:33N 61°36' E 005°02'0 0.0
2014-Mar-30 19:33N 61°36' E 005°02'0 0.0
2014-Mar-30 18:33N 61°36' E 005°02'0 0.0
2014-Mar-30 17:33N 61°36' E 005°02'0 0.0
2014-Mar-30 16:33N 61°36' E 005°02'0 0.0
2014-Mar-30 15:33N 61°36' E 005°02'0 0.0
2014-Mar-30 14:33N 61°36' E 005°02'0 0.0
2014-Mar-30 13:33N 61°36' E 005°02'0 0.0
2014-Mar-30 12:33N 61°36' E 005°02'0 0.0
2014-Mar-30 11:33N 61°36' E 005°02'0 0.0
2014-Mar-30 10:33N 61°36' E 005°02'0 0.0
2014-Mar-30 09:33N 61°36' E 005°02'0 0.0
2014-Mar-30 08:33N 61°36' E 005°02'0 0.0
2014-Mar-30 07:33N 61°36' E 005°02'0 0.0
2014-Mar-30 06:33N 61°36' E 005°02'0 0.0
2014-Mar-30 05:33N 61°36' E 005°02'0 0.0
2014-Mar-30 04:33N 61°36' E 005°02'0 0.0
2014-Mar-30 03:33N 61°36' E 005°02'0 0.0
2014-Mar-30 02:33N 61°36' E 005°02'0 0.0
2014-Mar-30 01:33N 61°36' E 005°02'0 0.0
2014-Mar-30 00:33N 61°36' E 005°02'0 0.0
2014-Mar-29 23:33N 61°36' E 005°02'0 0.0
2014-Mar-29 22:33N 61°36' E 005°02'0 0.0
2014-Mar-29 21:33N 61°36' E 005°02'0 0.0
2014-Mar-29 20:33N 61°36' E 005°02'0 0.0
2014-Mar-29 19:32N 61°36' E 005°02'0 0.0
2014-Mar-29 18:33N 61°36' E 005°02'0 0.0
2014-Mar-29 17:33N 61°36' E 005°02'0 0.0
2014-Mar-29 16:33N 61°36' E 005°02'0 0.0
2014-Mar-29 15:32N 61°36' E 005°02'0 0.0
2014-Mar-29 14:33N 61°36' E 005°02'0 0.0
2014-Mar-29 13:33N 61°36' E 005°02'0 0.0
2014-Mar-29 12:33N 61°36' E 005°02'0 0.0
2014-Mar-29 11:32N 61°36' E 005°02'0 0.0
2014-Mar-29 10:33N 61°36' E 005°02'0 0.0
2014-Mar-29 09:33N 61°36' E 005°02'0 0.0
2014-Mar-29 08:33N 61°36' E 005°02'0 0.0
2014-Mar-29 07:33N 61°36' E 005°02'0 0.0
2014-Mar-29 06:33N 61°36' E 005°02'0 0.0
2014-Mar-29 05:32N 61°36' E 005°02'0 0.0
2014-Mar-29 04:33N 61°36' E 005°02'0 0.0
2014-Mar-29 03:33N 61°36' E 005°02'0 0.0
2014-Mar-29 02:33N 61°36' E 005°02'0 0.0
2014-Mar-29 01:33N 61°36' E 005°02'0 0.0
2014-Mar-29 00:33N 61°36' E 005°02'0 0.0
2014-Mar-28 23:33N 61°36' E 005°02'0 0.0
2014-Mar-28 22:32N 61°36' E 005°02'0 0.0
2014-Mar-28 21:33N 61°36' E 005°02'0 0.0
2014-Mar-28 20:32N 61°36' E 005°02'  
Track history (hours):
 
Tides and Currents Weather Stations Pressure Air Temp Water Temp Dewpoint Dewpoint Depression Visibility Wind Speed Wind Dir Waves Ship Positions

Dagning

Last reported at 2014-Apr-04 21:33 UTC. Time now 2014-Jul-24 02:06 UTC.
Position N 61°36' E 005°02'.
Warning: this ship's position is months out of date.

Length 18 m; draft 2 m.

Type: Passenger vessel. MMSI: 257216700.

Date/timePositionNaut miles runAvg speedWind from/ knotsBaromVisibWave heightAir tempDewpointWater temp
2014-Apr-04 21:33N 61°36' E 005°02'0 0.0
2014-Apr-04 20:33N 61°36' E 005°02'0 0.0
2014-Apr-04 19:33N 61°36' E 005°02'0 0.0
2014-Apr-04 18:33N 61°36' E 005°02'0 0.0
2014-Apr-04 17:33N 61°36' E 005°02'10 3.3
2014-Apr-04 14:33N 61°46' E 004°58'8 7.9
2014-Apr-04 13:33N 61°38' E 004°57'2 2.3
2014-Apr-04 12:33N 61°36' E 005°01'0 0.4
2014-Apr-04 11:33N 61°36' E 005°02'0 0.0
2014-Apr-04 10:33N 61°36' E 005°02'0 0.0
2014-Apr-04 09:33N 61°36' E 005°02'0 0.0
2014-Apr-04 08:33N 61°36' E 005°02'0 0.0
2014-Apr-04 07:33N 61°36' E 005°02'0 0.0
2014-Apr-04 06:33N 61°36' E 005°02'0 0.0
2014-Apr-04 05:33N 61°36' E 005°02'0 0.0
2014-Apr-04 04:33N 61°36' E 005°02'10 0.7
2014-Apr-03 14:33N 61°46' E 004°58'1010.1
2014-Apr-03 13:33N 61°36' E 004°56'3 2.9
2014-Apr-03 12:33N 61°36' E 005°01'0 0.1
2014-Apr-03 11:34N 61°36' E 005°02'0 0.0
2014-Apr-03 10:33N 61°36' E 005°02'0 0.0
2014-Apr-03 09:33N 61°36' E 005°02'0 0.0
2014-Apr-03 08:34N 61°36' E 005°02'0 0.0
2014-Apr-03 07:33N 61°36' E 005°02'0 0.0
2014-Apr-03 06:33N 61°36' E 005°02'6 5.6
2014-Apr-03 05:28N 61°30' E 004°59'6 6.4
2014-Apr-03 04:32N 61°36' E 005°02'10 0.7
2014-Apr-02 14:33N 61°46' E 004°58'10 9.8
2014-Apr-02 13:32N 61°36' E 004°59'1 1.4
2014-Apr-02 12:33N 61°36' E 005°01'0 0.2
2014-Apr-02 11:33N 61°36' E 005°02'0 0.0
2014-Apr-02 10:33N 61°36' E 005°02'0 0.0
2014-Apr-02 09:33N 61°36' E 005°02'1 1.5
2014-Apr-02 08:33N 61°37' E 004°59'1 1.5
2014-Apr-02 07:33N 61°36' E 005°02'0 0.0
2014-Apr-02 06:33N 61°36' E 005°02'5 5.4
2014-Apr-02 05:33N 61°40' E 004°53'5 5.3
2014-Apr-02 04:33N 61°36' E 005°02'10 0.7
2014-Apr-01 14:33N 61°46' E 004°57'1110.7
2014-Apr-01 13:33N 61°35' E 004°57'2 2.0
2014-Apr-01 12:33N 61°36' E 005°01'0 0.1
2014-Apr-01 11:33N 61°36' E 005°02'0 0.0
2014-Apr-01 10:33N 61°36' E 005°02'0 0.0
2014-Apr-01 09:33N 61°36' E 005°02'0 0.0
2014-Apr-01 08:33N 61°36' E 005°02'0 0.0
2014-Apr-01 07:33N 61°36' E 005°02'0 0.0
2014-Apr-01 06:30N 61°36' E 005°02'8 8.0
2014-Apr-01 05:33N 61°34' E 004°46'8 7.7
2014-Apr-01 04:33N 61°36' E 005°02'10 0.7
2014-Mar-31 14:33N 61°46' E 004°58'1110.7
2014-Mar-31 13:33N 61°35' E 004°57'2 2.4
2014-Mar-31 12:33N 61°36' E 005°01'0 0.2
2014-Mar-31 11:33N 61°36' E 005°02'0 0.0
2014-Mar-31 10:33N 61°36' E 005°02'0 0.0
2014-Mar-31 09:33N 61°36' E 005°02'0 0.0
2014-Mar-31 08:33N 61°36' E 005°02'0 0.0
2014-Mar-31 07:32N 61°36' E 005°02'0 0.0
2014-Mar-31 06:33N 61°36' E 005°02'8 7.6
2014-Mar-31 05:33N 61°34' E 004°46'8 7.8
2014-Mar-31 04:33N 61°36' E 005°02'9 4.2
2014-Mar-31 02:21N 61°45' E 005°00'911.4
2014-Mar-31 01:33N 61°36' E 005°02'0 0.0
2014-Mar-31 00:32N 61°36' E 005°02'0 0.0
2014-Mar-30 23:33N 61°36' E 005°02'0 0.0
2014-Mar-30 22:33N 61°36' E 005°02'0 0.0
2014-Mar-30 21:33N 61°36' E 005°02'0 0.0
2014-Mar-30 20:33N 61°36' E 005°02'0 0.0
2014-Mar-30 19:33N 61°36' E 005°02'0 0.0
2014-Mar-30 18:33N 61°36' E 005°02'0 0.0
2014-Mar-30 17:33N 61°36' E 005°02'0 0.0
2014-Mar-30 16:33N 61°36' E 005°02'0 0.0
2014-Mar-30 15:33N 61°36' E 005°02'0 0.0
2014-Mar-30 14:33N 61°36' E 005°02'0 0.0
2014-Mar-30 13:33N 61°36' E 005°02'0 0.0
2014-Mar-30 12:33N 61°36' E 005°02'0 0.0
2014-Mar-30 11:33N 61°36' E 005°02'0 0.0
2014-Mar-30 10:33N 61°36' E 005°02'0 0.0
2014-Mar-30 09:33N 61°36' E 005°02'0 0.0
2014-Mar-30 08:33N 61°36' E 005°02'0 0.0
2014-Mar-30 07:33N 61°36' E 005°02'0 0.0
2014-Mar-30 06:33N 61°36' E 005°02'0 0.0
2014-Mar-30 05:33N 61°36' E 005°02'0 0.0
2014-Mar-30 04:33N 61°36' E 005°02'0 0.0
2014-Mar-30 03:33N 61°36' E 005°02'0 0.0
2014-Mar-30 02:33N 61°36' E 005°02'0 0.0
2014-Mar-30 01:33N 61°36' E 005°02'0 0.0
2014-Mar-30 00:33N 61°36' E 005°02'0 0.0
2014-Mar-29 23:33N 61°36' E 005°02'0 0.0
2014-Mar-29 22:33N 61°36' E 005°02'0 0.0
2014-Mar-29 21:33N 61°36' E 005°02'0 0.0
2014-Mar-29 20:33N 61°36' E 005°02'0 0.0
2014-Mar-29 19:32N 61°36' E 005°02'0 0.0
2014-Mar-29 18:33N 61°36' E 005°02'0 0.0
2014-Mar-29 17:33N 61°36' E 005°02'0 0.0
2014-Mar-29 16:33N 61°36' E 005°02'0 0.0
2014-Mar-29 15:32N 61°36' E 005°02'0 0.0
2014-Mar-29 14:33N 61°36' E 005°02'0 0.0
2014-Mar-29 13:33N 61°36' E 005°02'0 0.0
2014-Mar-29 12:33N 61°36' E 005°02'0 0.0
2014-Mar-29 11:32N 61°36' E 005°02'0 0.0
2014-Mar-29 10:33N 61°36' E 005°02'0 0.0
2014-Mar-29 09:33N 61°36' E 005°02'0 0.0
2014-Mar-29 08:33N 61°36' E 005°02'0 0.0
2014-Mar-29 07:33N 61°36' E 005°02'0 0.0
2014-Mar-29 06:33N 61°36' E 005°02'0 0.0
2014-Mar-29 05:32N 61°36' E 005°02'0 0.0
2014-Mar-29 04:33N 61°36' E 005°02'0 0.0
2014-Mar-29 03:33N 61°36' E 005°02'0 0.0
2014-Mar-29 02:33N 61°36' E 005°02'0 0.0
2014-Mar-29 01:33N 61°36' E 005°02'0 0.0
2014-Mar-29 00:33N 61°36' E 005°02'0 0.0
2014-Mar-28 23:33N 61°36' E 005°02'0 0.0
2014-Mar-28 22:32N 61°36' E 005°02'0 0.0
2014-Mar-28 21:33N 61°36' E 005°02'0 0.0
2014-Mar-28 20:32N 61°36' E 005°02'  

Dump ship's entire track history